sensor_id;sensor_type;location;lat;lon;timestamp;P1;durP1;ratioP1;P2;durP2;ratioP2
2972;SDS011;1496;51.404;7.232;2023-02-28T00:01:04;7.70;;;5.77;;
2972;SDS011;1496;51.404;7.232;2023-02-28T00:03:30;7.43;;;5.23;;
2972;SDS011;1496;51.404;7.232;2023-02-28T00:05:55;7.73;;;4.90;;
2972;SDS011;1496;51.404;7.232;2023-02-28T00:08:21;10.40;;;6.27;;
2972;SDS011;1496;51.404;7.232;2023-02-28T00:10:46;8.43;;;5.67;;
2972;SDS011;1496;51.404;7.232;2023-02-28T00:13:12;7.37;;;5.90;;
2972;SDS011;1496;51.404;7.232;2023-02-28T00:15:38;15.07;;;6.17;;
2972;SDS011;1496;51.404;7.232;2023-02-28T00:18:03;8.07;;;6.37;;
2972;SDS011;1496;51.404;7.232;2023-02-28T00:20:30;10.30;;;5.60;;
2972;SDS011;1496;51.404;7.232;2023-02-28T00:22:55;16.33;;;6.70;;
2972;SDS011;1496;51.404;7.232;2023-02-28T00:25:23;7.90;;;5.70;;
2972;SDS011;1496;51.404;7.232;2023-02-28T00:27:50;13.17;;;6.40;;
2972;SDS011;1496;51.404;7.232;2023-02-28T00:30:17;9.50;;;5.20;;
2972;SDS011;1496;51.404;7.232;2023-02-28T00:32:44;7.10;;;5.80;;
2972;SDS011;1496;51.404;7.232;2023-02-28T00:35:11;10.33;;;5.43;;
2972;SDS011;1496;51.404;7.232;2023-02-28T00:37:40;8.20;;;5.87;;
2972;SDS011;1496;51.404;7.232;2023-02-28T00:40:06;7.63;;;5.70;;
2972;SDS011;1496;51.404;7.232;2023-02-28T00:42:36;11.93;;;5.53;;
2972;SDS011;1496;51.404;7.232;2023-02-28T00:45:02;8.23;;;5.03;;
2972;SDS011;1496;51.404;7.232;2023-02-28T00:47:29;9.03;;;5.83;;
2972;SDS011;1496;51.404;7.232;2023-02-28T00:49:55;8.33;;;5.00;;
2972;SDS011;1496;51.404;7.232;2023-02-28T00:52:21;7.93;;;5.33;;
2972;SDS011;1496;51.404;7.232;2023-02-28T00:54:46;7.40;;;4.27;;
2972;SDS011;1496;51.404;7.232;2023-02-28T00:57:13;8.73;;;5.60;;
2972;SDS011;1496;51.404;7.232;2023-02-28T00:59:39;10.70;;;4.77;;
2972;SDS011;1496;51.404;7.232;2023-02-28T01:02:05;11.97;;;6.33;;
2972;SDS011;1496;51.404;7.232;2023-02-28T01:04:30;8.20;;;4.57;;
2972;SDS011;1496;51.404;7.232;2023-02-28T01:06:59;8.40;;;5.10;;
2972;SDS011;1496;51.404;7.232;2023-02-28T01:09:27;6.90;;;5.30;;
2972;SDS011;1496;51.404;7.232;2023-02-28T01:11:53;7.03;;;5.23;;
2972;SDS011;1496;51.404;7.232;2023-02-28T01:14:19;11.03;;;5.90;;
2972;SDS011;1496;51.404;7.232;2023-02-28T01:16:45;7.10;;;5.30;;
2972;SDS011;1496;51.404;7.232;2023-02-28T01:19:11;9.40;;;5.03;;
2972;SDS011;1496;51.404;7.232;2023-02-28T01:21:37;7.07;;;5.17;;
2972;SDS011;1496;51.404;7.232;2023-02-28T01:24:04;10.27;;;5.13;;
2972;SDS011;1496;51.404;7.232;2023-02-28T01:26:30;12.80;;;5.10;;
2972;SDS011;1496;51.404;7.232;2023-02-28T01:28:56;10.53;;;5.07;;
2972;SDS011;1496;51.404;7.232;2023-02-28T01:31:24;10.83;;;6.47;;
2972;SDS011;1496;51.404;7.232;2023-02-28T01:33:50;8.47;;;4.80;;
2972;SDS011;1496;51.404;7.232;2023-02-28T01:36:17;6.30;;;5.00;;
2972;SDS011;1496;51.404;7.232;2023-02-28T01:38:47;8.60;;;4.80;;
2972;SDS011;1496;51.404;7.232;2023-02-28T01:41:20;12.43;;;5.10;;
2972;SDS011;1496;51.404;7.232;2023-02-28T01:46:14;5.73;;;4.03;;
2972;SDS011;1496;51.404;7.232;2023-02-28T01:48:42;6.43;;;4.30;;
2972;SDS011;1496;51.404;7.232;2023-02-28T01:51:16;6.87;;;4.00;;
2972;SDS011;1496;51.404;7.232;2023-02-28T01:53:47;8.50;;;4.40;;
2972;SDS011;1496;51.404;7.232;2023-02-28T01:56:19;6.97;;;4.23;;
2972;SDS011;1496;51.404;7.232;2023-02-28T01:58:49;11.33;;;3.40;;
2972;SDS011;1496;51.404;7.232;2023-02-28T02:01:17;7.67;;;5.13;;
2972;SDS011;1496;51.404;7.232;2023-02-28T02:03:48;7.93;;;4.50;;
2972;SDS011;1496;51.404;7.232;2023-02-28T02:06:20;7.77;;;4.20;;
2972;SDS011;1496;51.404;7.232;2023-02-28T02:08:48;5.30;;;4.50;;
2972;SDS011;1496;51.404;7.232;2023-02-28T02:11:14;7.20;;;4.33;;
2972;SDS011;1496;51.404;7.232;2023-02-28T02:19:08;7.90;;;4.10;;
2972;SDS011;1496;51.404;7.232;2023-02-28T02:27:41;7.60;;;4.20;;
2972;SDS011;1496;51.404;7.232;2023-02-28T02:36:07;5.93;;;4.27;;
2972;SDS011;1496;51.404;7.232;2023-02-28T02:38:53;5.43;;;4.27;;
2972;SDS011;1496;51.404;7.232;2023-02-28T02:44:06;7.70;;;4.53;;
2972;SDS011;1496;51.404;7.232;2023-02-28T02:46:37;4.70;;;3.87;;
2972;SDS011;1496;51.404;7.232;2023-02-28T02:49:08;5.30;;;4.53;;
2972;SDS011;1496;51.404;7.232;2023-02-28T02:51:37;6.67;;;4.60;;
2972;SDS011;1496;51.404;7.232;2023-02-28T02:54:05;6.47;;;4.10;;
2972;SDS011;1496;51.404;7.232;2023-02-28T02:56:38;13.83;;;4.10;;
2972;SDS011;1496;51.404;7.232;2023-02-28T02:59:07;8.90;;;4.47;;
2972;SDS011;1496;51.404;7.232;2023-02-28T03:01:36;5.20;;;3.57;;
2972;SDS011;1496;51.404;7.232;2023-02-28T03:04:04;7.83;;;3.47;;
2972;SDS011;1496;51.404;7.232;2023-02-28T03:06:37;7.77;;;5.80;;
2972;SDS011;1496;51.404;7.232;2023-02-28T03:09:02;6.50;;;4.00;;
2972;SDS011;1496;51.404;7.232;2023-02-28T03:11:29;10.10;;;3.70;;
2972;SDS011;1496;51.404;7.232;2023-02-28T03:14:10;4.17;;;3.37;;
2972;SDS011;1496;51.404;7.232;2023-02-28T03:25:27;6.23;;;4.27;;
2972;SDS011;1496;51.404;7.232;2023-02-28T03:33:14;6.10;;;3.90;;
2972;SDS011;1496;51.404;7.232;2023-02-28T03:36:01;5.90;;;3.97;;
2972;SDS011;1496;51.404;7.232;2023-02-28T03:38:33;7.33;;;3.60;;
2972;SDS011;1496;51.404;7.232;2023-02-28T03:41:14;5.50;;;3.73;;
2972;SDS011;1496;51.404;7.232;2023-02-28T03:44:10;7.70;;;4.43;;
2972;SDS011;1496;51.404;7.232;2023-02-28T03:46:41;9.53;;;4.50;;
2972;SDS011;1496;51.404;7.232;2023-02-28T03:49:16;5.23;;;4.20;;
2972;SDS011;1496;51.404;7.232;2023-02-28T03:51:48;4.83;;;4.30;;
2972;SDS011;1496;51.404;7.232;2023-02-28T03:54:17;6.47;;;4.60;;
2972;SDS011;1496;51.404;7.232;2023-02-28T03:56:48;9.67;;;3.53;;
2972;SDS011;1496;51.404;7.232;2023-02-28T03:59:22;9.23;;;4.20;;
2972;SDS011;1496;51.404;7.232;2023-02-28T04:01:53;6.73;;;5.27;;
2972;SDS011;1496;51.404;7.232;2023-02-28T04:04:20;4.90;;;4.20;;
2972;SDS011;1496;51.404;7.232;2023-02-28T04:06:46;5.93;;;4.00;;
2972;SDS011;1496;51.404;7.232;2023-02-28T04:09:15;4.97;;;4.47;;
2972;SDS011;1496;51.404;7.232;2023-02-28T04:11:42;7.03;;;4.20;;
2972;SDS011;1496;51.404;7.232;2023-02-28T04:14:16;4.63;;;4.00;;
2972;SDS011;1496;51.404;7.232;2023-02-28T04:16:43;7.73;;;3.90;;
2972;SDS011;1496;51.404;7.232;2023-02-28T04:19:10;5.43;;;4.20;;
2972;SDS011;1496;51.404;7.232;2023-02-28T04:21:38;5.73;;;4.30;;
2972;SDS011;1496;51.404;7.232;2023-02-28T04:24:06;7.27;;;4.30;;
2972;SDS011;1496;51.404;7.232;2023-02-28T04:26:39;7.30;;;4.37;;
2972;SDS011;1496;51.404;7.232;2023-02-28T04:29:08;6.10;;;3.77;;
2972;SDS011;1496;51.404;7.232;2023-02-28T04:31:35;7.63;;;3.93;;
2972;SDS011;1496;51.404;7.232;2023-02-28T04:34:01;7.00;;;3.73;;
2972;SDS011;1496;51.404;7.232;2023-02-28T04:36:27;7.87;;;4.17;;
2972;SDS011;1496;51.404;7.232;2023-02-28T04:38:53;8.40;;;4.17;;
2972;SDS011;1496;51.404;7.232;2023-02-28T04:41:19;4.50;;;3.73;;
2972;SDS011;1496;51.404;7.232;2023-02-28T04:43:46;11.53;;;4.60;;
2972;SDS011;1496;51.404;7.232;2023-02-28T04:46:11;7.93;;;3.70;;
2972;SDS011;1496;51.404;7.232;2023-02-28T04:48:37;9.07;;;4.40;;
2972;SDS011;1496;51.404;7.232;2023-02-28T04:51:05;6.27;;;3.53;;
2972;SDS011;1496;51.404;7.232;2023-02-28T04:53:33;5.17;;;4.00;;
2972;SDS011;1496;51.404;7.232;2023-02-28T04:55:59;4.40;;;3.97;;
2972;SDS011;1496;51.404;7.232;2023-02-28T04:58:25;14.33;;;4.43;;
2972;SDS011;1496;51.404;7.232;2023-02-28T05:00:51;7.70;;;4.00;;
2972;SDS011;1496;51.404;7.232;2023-02-28T05:03:17;11.80;;;3.63;;
2972;SDS011;1496;51.404;7.232;2023-02-28T05:05:43;4.57;;;3.63;;
2972;SDS011;1496;51.404;7.232;2023-02-28T05:08:09;7.37;;;4.50;;
2972;SDS011;1496;51.404;7.232;2023-02-28T05:10:35;8.30;;;3.10;;
2972;SDS011;1496;51.404;7.232;2023-02-28T05:13:01;5.10;;;3.53;;
2972;SDS011;1496;51.404;7.232;2023-02-28T05:15:27;5.47;;;3.80;;
2972;SDS011;1496;51.404;7.232;2023-02-28T05:17:52;9.63;;;3.37;;
2972;SDS011;1496;51.404;7.232;2023-02-28T05:20:18;7.10;;;4.37;;
2972;SDS011;1496;51.404;7.232;2023-02-28T05:22:46;6.07;;;3.60;;
2972;SDS011;1496;51.404;7.232;2023-02-28T05:25:12;4.60;;;3.57;;
2972;SDS011;1496;51.404;7.232;2023-02-28T05:27:42;5.90;;;3.90;;
2972;SDS011;1496;51.404;7.232;2023-02-28T05:30:08;4.23;;;3.80;;
2972;SDS011;1496;51.404;7.232;2023-02-28T05:32:38;5.10;;;4.17;;
2972;SDS011;1496;51.404;7.232;2023-02-28T05:35:07;8.33;;;4.17;;
2972;SDS011;1496;51.404;7.232;2023-02-28T05:37:34;7.40;;;3.77;;
2972;SDS011;1496;51.404;7.232;2023-02-28T05:40:00;5.33;;;3.70;;
2972;SDS011;1496;51.404;7.232;2023-02-28T05:42:25;7.83;;;4.00;;
2972;SDS011;1496;51.404;7.232;2023-02-28T05:44:51;6.57;;;4.23;;
2972;SDS011;1496;51.404;7.232;2023-02-28T05:47:17;7.87;;;3.67;;
2972;SDS011;1496;51.404;7.232;2023-02-28T05:49:42;8.43;;;3.80;;
2972;SDS011;1496;51.404;7.232;2023-02-28T05:52:08;9.30;;;4.00;;
2972;SDS011;1496;51.404;7.232;2023-02-28T05:54:33;6.20;;;3.67;;
2972;SDS011;1496;51.404;7.232;2023-02-28T05:56:59;7.40;;;4.07;;
2972;SDS011;1496;51.404;7.232;2023-02-28T05:59:25;5.20;;;3.33;;
2972;SDS011;1496;51.404;7.232;2023-02-28T06:01:50;8.80;;;4.40;;
2972;SDS011;1496;51.404;7.232;2023-02-28T06:04:18;6.70;;;3.97;;
2972;SDS011;1496;51.404;7.232;2023-02-28T06:06:46;8.53;;;4.30;;
2972;SDS011;1496;51.404;7.232;2023-02-28T06:09:12;8.73;;;4.70;;
2972;SDS011;1496;51.404;7.232;2023-02-28T06:11:38;7.87;;;4.00;;
2972;SDS011;1496;51.404;7.232;2023-02-28T06:14:04;5.00;;;4.07;;
2972;SDS011;1496;51.404;7.232;2023-02-28T06:16:32;6.70;;;4.10;;
2972;SDS011;1496;51.404;7.232;2023-02-28T06:18:59;5.97;;;4.17;;
2972;SDS011;1496;51.404;7.232;2023-02-28T06:21:26;6.63;;;3.90;;
2972;SDS011;1496;51.404;7.232;2023-02-28T06:23:53;11.13;;;3.93;;
2972;SDS011;1496;51.404;7.232;2023-02-28T06:26:19;8.97;;;4.97;;
2972;SDS011;1496;51.404;7.232;2023-02-28T06:28:45;9.53;;;4.47;;
2972;SDS011;1496;51.404;7.232;2023-02-28T06:31:12;5.80;;;3.70;;
2972;SDS011;1496;51.404;7.232;2023-02-28T06:33:40;5.43;;;4.33;;
2972;SDS011;1496;51.404;7.232;2023-02-28T06:36:06;7.83;;;4.17;;
2972;SDS011;1496;51.404;7.232;2023-02-28T06:38:33;7.10;;;4.33;;
2972;SDS011;1496;51.404;7.232;2023-02-28T06:40:59;6.10;;;4.47;;
2972;SDS011;1496;51.404;7.232;2023-02-28T06:43:25;5.47;;;4.30;;
2972;SDS011;1496;51.404;7.232;2023-02-28T06:45:57;7.30;;;4.60;;
2972;SDS011;1496;51.404;7.232;2023-02-28T06:48:25;5.60;;;4.13;;
2972;SDS011;1496;51.404;7.232;2023-02-28T06:50:52;5.13;;;4.17;;
2972;SDS011;1496;51.404;7.232;2023-02-28T06:53:18;8.10;;;5.50;;
2972;SDS011;1496;51.404;7.232;2023-02-28T06:55:43;6.90;;;4.27;;
2972;SDS011;1496;51.404;7.232;2023-02-28T06:58:09;7.30;;;4.60;;
2972;SDS011;1496;51.404;7.232;2023-02-28T07:00:41;6.57;;;4.70;;
2972;SDS011;1496;51.404;7.232;2023-02-28T07:03:07;7.80;;;4.13;;
2972;SDS011;1496;51.404;7.232;2023-02-28T07:05:34;8.37;;;4.77;;
2972;SDS011;1496;51.404;7.232;2023-02-28T07:08:01;7.47;;;4.50;;
2972;SDS011;1496;51.404;7.232;2023-02-28T07:10:28;7.93;;;4.80;;
2972;SDS011;1496;51.404;7.232;2023-02-28T07:12:54;5.50;;;3.70;;
2972;SDS011;1496;51.404;7.232;2023-02-28T07:15:19;6.17;;;3.80;;
2972;SDS011;1496;51.404;7.232;2023-02-28T07:17:45;6.67;;;3.90;;
2972;SDS011;1496;51.404;7.232;2023-02-28T07:20:11;5.70;;;3.73;;
2972;SDS011;1496;51.404;7.232;2023-02-28T07:22:37;4.43;;;3.83;;
2972;SDS011;1496;51.404;7.232;2023-02-28T07:25:04;11.57;;;5.50;;
2972;SDS011;1496;51.404;7.232;2023-02-28T07:27:30;13.27;;;4.53;;
2972;SDS011;1496;51.404;7.232;2023-02-28T07:29:56;10.50;;;4.23;;
2972;SDS011;1496;51.404;7.232;2023-02-28T07:32:21;8.30;;;5.77;;
2972;SDS011;1496;51.404;7.232;2023-02-28T07:34:47;8.60;;;5.17;;
2972;SDS011;1496;51.404;7.232;2023-02-28T07:37:13;8.30;;;5.40;;
2972;SDS011;1496;51.404;7.232;2023-02-28T07:39:39;8.40;;;4.80;;
2972;SDS011;1496;51.404;7.232;2023-02-28T07:42:07;10.10;;;4.93;;
2972;SDS011;1496;51.404;7.232;2023-02-28T07:44:35;7.60;;;4.47;;
2972;SDS011;1496;51.404;7.232;2023-02-28T07:47:05;7.87;;;5.03;;
2972;SDS011;1496;51.404;7.232;2023-02-28T07:49:32;14.90;;;4.83;;
2972;SDS011;1496;51.404;7.232;2023-02-28T07:51:57;5.50;;;4.50;;
2972;SDS011;1496;51.404;7.232;2023-02-28T07:54:23;7.63;;;4.80;;
2972;SDS011;1496;51.404;7.232;2023-02-28T07:56:48;7.80;;;5.10;;
2972;SDS011;1496;51.404;7.232;2023-02-28T07:59:14;6.90;;;5.27;;
2972;SDS011;1496;51.404;7.232;2023-02-28T08:01:40;11.00;;;4.73;;
2972;SDS011;1496;51.404;7.232;2023-02-28T08:04:05;9.07;;;4.93;;
2972;SDS011;1496;51.404;7.232;2023-02-28T08:06:31;7.07;;;5.13;;
2972;SDS011;1496;51.404;7.232;2023-02-28T08:08:57;8.60;;;5.20;;
2972;SDS011;1496;51.404;7.232;2023-02-28T08:11:22;11.83;;;4.53;;
2972;SDS011;1496;51.404;7.232;2023-02-28T08:13:49;7.47;;;5.70;;
2972;SDS011;1496;51.404;7.232;2023-02-28T08:16:15;10.00;;;4.60;;
2972;SDS011;1496;51.404;7.232;2023-02-28T08:18:46;7.40;;;5.67;;
2972;SDS011;1496;51.404;7.232;2023-02-28T08:21:11;7.90;;;4.77;;
2972;SDS011;1496;51.404;7.232;2023-02-28T08:23:37;9.10;;;5.40;;
2972;SDS011;1496;51.404;7.232;2023-02-28T08:26:03;11.70;;;6.47;;
2972;SDS011;1496;51.404;7.232;2023-02-28T08:28:29;6.53;;;4.70;;
2972;SDS011;1496;51.404;7.232;2023-02-28T08:30:55;7.93;;;4.83;;
2972;SDS011;1496;51.404;7.232;2023-02-28T08:33:21;12.43;;;5.00;;
2972;SDS011;1496;51.404;7.232;2023-02-28T08:35:48;7.50;;;4.60;;
2972;SDS011;1496;51.404;7.232;2023-02-28T08:38:13;8.23;;;3.70;;
2972;SDS011;1496;51.404;7.232;2023-02-28T08:40:39;6.30;;;4.30;;
2972;SDS011;1496;51.404;7.232;2023-02-28T08:43:05;6.10;;;3.93;;
2972;SDS011;1496;51.404;7.232;2023-02-28T08:45:31;9.73;;;4.87;;
2972;SDS011;1496;51.404;7.232;2023-02-28T08:47:56;7.50;;;4.53;;
2972;SDS011;1496;51.404;7.232;2023-02-28T08:50:22;6.53;;;3.63;;
2972;SDS011;1496;51.404;7.232;2023-02-28T08:52:48;6.50;;;3.90;;
2972;SDS011;1496;51.404;7.232;2023-02-28T08:55:14;6.07;;;4.10;;
2972;SDS011;1496;51.404;7.232;2023-02-28T08:57:40;6.30;;;4.03;;
2972;SDS011;1496;51.404;7.232;2023-02-28T09:00:06;6.83;;;4.53;;
2972;SDS011;1496;51.404;7.232;2023-02-28T09:02:32;6.17;;;4.00;;
2972;SDS011;1496;51.404;7.232;2023-02-28T09:04:58;8.70;;;3.90;;
2972;SDS011;1496;51.404;7.232;2023-02-28T09:07:24;6.03;;;4.10;;
2972;SDS011;1496;51.404;7.232;2023-02-28T09:09:50;4.20;;;3.80;;
2972;SDS011;1496;51.404;7.232;2023-02-28T09:12:22;5.70;;;3.73;;
2972;SDS011;1496;51.404;7.232;2023-02-28T09:14:49;4.80;;;3.30;;
2972;SDS011;1496;51.404;7.232;2023-02-28T09:17:15;4.80;;;3.23;;
2972;SDS011;1496;51.404;7.232;2023-02-28T09:19:41;4.50;;;3.77;;
2972;SDS011;1496;51.404;7.232;2023-02-28T09:22:08;6.23;;;3.50;;
2972;SDS011;1496;51.404;7.232;2023-02-28T09:24:35;4.43;;;3.10;;
2972;SDS011;1496;51.404;7.232;2023-02-28T09:27:02;5.37;;;3.23;;
2972;SDS011;1496;51.404;7.232;2023-02-28T09:29:28;8.27;;;4.07;;
2972;SDS011;1496;51.404;7.232;2023-02-28T09:31:54;5.60;;;4.20;;
2972;SDS011;1496;51.404;7.232;2023-02-28T09:34:21;5.50;;;3.97;;
2972;SDS011;1496;51.404;7.232;2023-02-28T09:36:48;7.50;;;3.77;;
2972;SDS011;1496;51.404;7.232;2023-02-28T09:39:15;5.40;;;3.40;;
2972;SDS011;1496;51.404;7.232;2023-02-28T09:41:42;3.87;;;2.73;;
2972;SDS011;1496;51.404;7.232;2023-02-28T09:47:14;5.23;;;2.93;;
2972;SDS011;1496;51.404;7.232;2023-02-28T09:50:47;7.07;;;3.17;;
2972;SDS011;1496;51.404;7.232;2023-02-28T09:53:12;4.00;;;3.20;;
2972;SDS011;1496;51.404;7.232;2023-02-28T09:55:45;5.33;;;3.07;;
2972;SDS011;1496;51.404;7.232;2023-02-28T09:59:00;5.10;;;3.00;;
2972;SDS011;1496;51.404;7.232;2023-02-28T10:04:16;6.27;;;4.30;;
2972;SDS011;1496;51.404;7.232;2023-02-28T10:06:48;3.30;;;3.00;;
2972;SDS011;1496;51.404;7.232;2023-02-28T10:09:20;4.23;;;2.93;;
2972;SDS011;1496;51.404;7.232;2023-02-28T10:11:50;7.50;;;3.23;;
2972;SDS011;1496;51.404;7.232;2023-02-28T10:19:25;5.80;;;3.63;;
2972;SDS011;1496;51.404;7.232;2023-02-28T10:22:14;4.47;;;2.97;;
2972;SDS011;1496;51.404;7.232;2023-02-28T10:25:05;3.50;;;3.20;;
2972;SDS011;1496;51.404;7.232;2023-02-28T10:27:44;2.57;;;2.37;;
2972;SDS011;1496;51.404;7.232;2023-02-28T10:30:10;4.10;;;2.47;;
2972;SDS011;1496;51.404;7.232;2023-02-28T10:32:38;2.70;;;2.20;;
2972;SDS011;1496;51.404;7.232;2023-02-28T10:37:42;4.50;;;2.10;;
2972;SDS011;1496;51.404;7.232;2023-02-28T10:45:30;2.70;;;1.97;;
2972;SDS011;1496;51.404;7.232;2023-02-28T10:50:36;3.43;;;2.03;;
2972;SDS011;1496;51.404;7.232;2023-02-28T11:01:19;1.70;;;1.40;;
2972;SDS011;1496;51.404;7.232;2023-02-28T11:03:48;4.67;;;2.40;;
2972;SDS011;1496;51.404;7.232;2023-02-28T11:06:35;1.80;;;1.50;;
2972;SDS011;1496;51.404;7.232;2023-02-28T11:09:02;5.80;;;2.17;;
2972;SDS011;1496;51.404;7.232;2023-02-28T11:11:40;9.70;;;1.70;;
2972;SDS011;1496;51.404;7.232;2023-02-28T11:14:16;3.87;;;2.50;;
2972;SDS011;1496;51.404;7.232;2023-02-28T11:16:52;2.67;;;2.20;;
2972;SDS011;1496;51.404;7.232;2023-02-28T11:19:23;2.60;;;1.63;;
2972;SDS011;1496;51.404;7.232;2023-02-28T11:22:00;2.27;;;2.07;;
2972;SDS011;1496;51.404;7.232;2023-02-28T11:24:28;2.50;;;1.97;;
2972;SDS011;1496;51.404;7.232;2023-02-28T11:26:58;9.23;;;3.10;;
2972;SDS011;1496;51.404;7.232;2023-02-28T11:29:25;4.30;;;2.50;;
2972;SDS011;1496;51.404;7.232;2023-02-28T11:32:18;2.43;;;2.00;;
2972;SDS011;1496;51.404;7.232;2023-02-28T11:34:46;3.10;;;1.97;;
2972;SDS011;1496;51.404;7.232;2023-02-28T11:37:25;6.20;;;2.37;;
2972;SDS011;1496;51.404;7.232;2023-02-28T11:39:52;3.00;;;1.70;;
2972;SDS011;1496;51.404;7.232;2023-02-28T11:44:59;2.30;;;1.77;;
2972;SDS011;1496;51.404;7.232;2023-02-28T11:55:39;2.00;;;1.80;;
2972;SDS011;1496;51.404;7.232;2023-02-28T11:58:20;2.93;;;2.00;;
2972;SDS011;1496;51.404;7.232;2023-02-28T12:01:09;3.37;;;2.43;;
2972;SDS011;1496;51.404;7.232;2023-02-28T12:06:22;2.70;;;2.20;;
2972;SDS011;1496;51.404;7.232;2023-02-28T12:11:55;5.10;;;2.30;;
2972;SDS011;1496;51.404;7.232;2023-02-28T12:17:11;4.53;;;2.73;;
2972;SDS011;1496;51.404;7.232;2023-02-28T12:20:02;3.67;;;2.10;;
2972;SDS011;1496;51.404;7.232;2023-02-28T12:22:45;3.10;;;2.23;;
2972;SDS011;1496;51.404;7.232;2023-02-28T12:25:47;4.30;;;2.60;;
2972;SDS011;1496;51.404;7.232;2023-02-28T12:28:41;5.07;;;2.30;;
2972;SDS011;1496;51.404;7.232;2023-02-28T12:31:29;3.60;;;2.37;;
2972;SDS011;1496;51.404;7.232;2023-02-28T12:34:01;5.40;;;2.50;;
2972;SDS011;1496;51.404;7.232;2023-02-28T12:36:31;2.43;;;2.00;;
2972;SDS011;1496;51.404;7.232;2023-02-28T12:39:09;3.70;;;2.20;;
2972;SDS011;1496;51.404;7.232;2023-02-28T12:41:59;3.57;;;2.30;;
2972;SDS011;1496;51.404;7.232;2023-02-28T12:44:30;4.90;;;2.83;;
2972;SDS011;1496;51.404;7.232;2023-02-28T12:47:02;3.00;;;2.30;;
2972;SDS011;1496;51.404;7.232;2023-02-28T12:52:11;4.10;;;2.23;;
2972;SDS011;1496;51.404;7.232;2023-02-28T12:57:18;3.40;;;2.30;;
2972;SDS011;1496;51.404;7.232;2023-02-28T13:00:01;4.60;;;2.93;;
2972;SDS011;1496;51.404;7.232;2023-02-28T13:10:45;5.10;;;2.60;;
2972;SDS011;1496;51.404;7.232;2023-02-28T13:13:19;3.80;;;2.67;;
2972;SDS011;1496;51.404;7.232;2023-02-28T13:18:29;5.93;;;2.50;;
2972;SDS011;1496;51.404;7.232;2023-02-28T13:20:58;3.33;;;2.57;;
2972;SDS011;1496;51.404;7.232;2023-02-28T13:26:16;3.97;;;2.80;;
2972;SDS011;1496;51.404;7.232;2023-02-28T13:31:13;3.63;;;2.60;;
2972;SDS011;1496;51.404;7.232;2023-02-28T13:36:26;6.73;;;3.00;;
2972;SDS011;1496;51.404;7.232;2023-02-28T13:39:11;9.73;;;2.90;;
2972;SDS011;1496;51.404;7.232;2023-02-28T13:41:57;3.30;;;2.63;;
2972;SDS011;1496;51.404;7.232;2023-02-28T13:55:37;6.83;;;3.00;;
2972;SDS011;1496;51.404;7.232;2023-02-28T14:06:54;3.43;;;2.80;;
2972;SDS011;1496;51.404;7.232;2023-02-28T14:09:31;7.20;;;3.77;;
2972;SDS011;1496;51.404;7.232;2023-02-28T14:12:51;4.23;;;2.83;;
2972;SDS011;1496;51.404;7.232;2023-02-28T14:15:26;5.20;;;3.00;;
2972;SDS011;1496;51.404;7.232;2023-02-28T14:18:01;5.40;;;3.07;;
2972;SDS011;1496;51.404;7.232;2023-02-28T14:20:31;7.80;;;3.87;;
2972;SDS011;1496;51.404;7.232;2023-02-28T14:26:07;3.50;;;2.90;;
2972;SDS011;1496;51.404;7.232;2023-02-28T14:29:21;4.20;;;3.07;;
2972;SDS011;1496;51.404;7.232;2023-02-28T14:37:47;6.23;;;3.17;;
2972;SDS011;1496;51.404;7.232;2023-02-28T14:40:22;5.27;;;3.17;;
2972;SDS011;1496;51.404;7.232;2023-02-28T14:42:59;3.00;;;2.70;;
2972;SDS011;1496;51.404;7.232;2023-02-28T14:45:27;3.13;;;2.83;;
2972;SDS011;1496;51.404;7.232;2023-02-28T14:47:55;4.93;;;3.70;;
2972;SDS011;1496;51.404;7.232;2023-02-28T14:50:23;3.07;;;2.87;;
2972;SDS011;1496;51.404;7.232;2023-02-28T14:52:55;3.83;;;3.23;;
2972;SDS011;1496;51.404;7.232;2023-02-28T14:55:36;4.10;;;3.00;;
2972;SDS011;1496;51.404;7.232;2023-02-28T14:58:06;5.60;;;3.10;;
2972;SDS011;1496;51.404;7.232;2023-02-28T15:00:47;6.07;;;3.40;;
2972;SDS011;1496;51.404;7.232;2023-02-28T15:03:22;7.80;;;3.60;;
2972;SDS011;1496;51.404;7.232;2023-02-28T15:06:12;13.07;;;3.50;;
2972;SDS011;1496;51.404;7.232;2023-02-28T15:08:43;3.83;;;3.47;;
2972;SDS011;1496;51.404;7.232;2023-02-28T15:13:44;5.03;;;3.43;;
2972;SDS011;1496;51.404;7.232;2023-02-28T15:16:13;3.90;;;2.77;;
2972;SDS011;1496;51.404;7.232;2023-02-28T15:18:57;3.53;;;3.23;;
2972;SDS011;1496;51.404;7.232;2023-02-28T15:21:33;4.73;;;4.07;;
2972;SDS011;1496;51.404;7.232;2023-02-28T15:24:17;3.77;;;3.47;;
2972;SDS011;1496;51.404;7.232;2023-02-28T15:26:50;3.60;;;3.30;;
2972;SDS011;1496;51.404;7.232;2023-02-28T15:29:22;6.23;;;4.10;;
2972;SDS011;1496;51.404;7.232;2023-02-28T15:36:54;5.73;;;3.00;;
2972;SDS011;1496;51.404;7.232;2023-02-28T15:39:27;3.80;;;3.00;;
2972;SDS011;1496;51.404;7.232;2023-02-28T15:44:44;6.60;;;3.97;;
2972;SDS011;1496;51.404;7.232;2023-02-28T15:47:20;8.33;;;3.30;;
2972;SDS011;1496;51.404;7.232;2023-02-28T15:49:49;4.60;;;2.80;;
2972;SDS011;1496;51.404;7.232;2023-02-28T15:52:39;5.47;;;3.70;;
2972;SDS011;1496;51.404;7.232;2023-02-28T15:55:24;5.33;;;3.57;;
2972;SDS011;1496;51.404;7.232;2023-02-28T15:57:54;4.33;;;3.00;;
2972;SDS011;1496;51.404;7.232;2023-02-28T16:00:24;3.43;;;3.13;;
2972;SDS011;1496;51.404;7.232;2023-02-28T16:02:51;4.33;;;3.40;;
2972;SDS011;1496;51.404;7.232;2023-02-28T16:07:56;5.00;;;3.67;;
2972;SDS011;1496;51.404;7.232;2023-02-28T16:10:24;5.00;;;3.53;;
2972;SDS011;1496;51.404;7.232;2023-02-28T16:12:52;3.70;;;2.80;;
2972;SDS011;1496;51.404;7.232;2023-02-28T16:15:27;7.10;;;4.03;;
2972;SDS011;1496;51.404;7.232;2023-02-28T16:17:56;4.60;;;3.23;;
2972;SDS011;1496;51.404;7.232;2023-02-28T16:20:23;4.43;;;3.17;;
2972;SDS011;1496;51.404;7.232;2023-02-28T16:22:51;5.90;;;3.70;;
2972;SDS011;1496;51.404;7.232;2023-02-28T16:25:18;4.67;;;3.40;;
2972;SDS011;1496;51.404;7.232;2023-02-28T16:27:49;4.80;;;3.77;;
2972;SDS011;1496;51.404;7.232;2023-02-28T16:30:23;4.33;;;3.80;;
2972;SDS011;1496;51.404;7.232;2023-02-28T16:32:51;4.00;;;3.40;;
2972;SDS011;1496;51.404;7.232;2023-02-28T16:35:19;7.60;;;4.23;;
2972;SDS011;1496;51.404;7.232;2023-02-28T16:37:45;6.83;;;3.37;;
2972;SDS011;1496;51.404;7.232;2023-02-28T16:40:15;5.53;;;3.67;;
2972;SDS011;1496;51.404;7.232;2023-02-28T16:42:52;3.60;;;3.13;;
2972;SDS011;1496;51.404;7.232;2023-02-28T16:45:22;9.70;;;4.00;;
2972;SDS011;1496;51.404;7.232;2023-02-28T16:47:49;5.93;;;4.00;;
2972;SDS011;1496;51.404;7.232;2023-02-28T16:50:16;5.60;;;3.47;;
2972;SDS011;1496;51.404;7.232;2023-02-28T16:52:44;10.83;;;3.20;;
2972;SDS011;1496;51.404;7.232;2023-02-28T16:55:10;4.40;;;3.90;;
2972;SDS011;1496;51.404;7.232;2023-02-28T16:57:37;3.20;;;2.90;;
2972;SDS011;1496;51.404;7.232;2023-02-28T17:00:04;4.57;;;3.40;;
2972;SDS011;1496;51.404;7.232;2023-02-28T17:02:32;3.40;;;3.10;;
2972;SDS011;1496;51.404;7.232;2023-02-28T17:04:58;7.73;;;4.10;;
2972;SDS011;1496;51.404;7.232;2023-02-28T17:07:24;6.90;;;3.97;;
2972;SDS011;1496;51.404;7.232;2023-02-28T17:09:50;3.30;;;3.00;;
2972;SDS011;1496;51.404;7.232;2023-02-28T17:12:15;4.60;;;3.63;;
2972;SDS011;1496;51.404;7.232;2023-02-28T17:14:41;4.83;;;3.20;;
2972;SDS011;1496;51.404;7.232;2023-02-28T17:17:07;11.27;;;3.57;;
2972;SDS011;1496;51.404;7.232;2023-02-28T17:19:35;7.83;;;3.23;;
2972;SDS011;1496;51.404;7.232;2023-02-28T17:22:01;7.77;;;3.77;;
2972;SDS011;1496;51.404;7.232;2023-02-28T17:24:28;4.87;;;3.30;;
2972;SDS011;1496;51.404;7.232;2023-02-28T17:26:53;5.20;;;3.57;;
2972;SDS011;1496;51.404;7.232;2023-02-28T17:29:19;4.30;;;3.20;;
2972;SDS011;1496;51.404;7.232;2023-02-28T17:31:46;4.20;;;2.90;;
2972;SDS011;1496;51.404;7.232;2023-02-28T17:34:12;4.63;;;3.53;;
2972;SDS011;1496;51.404;7.232;2023-02-28T17:36:43;6.47;;;3.63;;
2972;SDS011;1496;51.404;7.232;2023-02-28T17:39:11;5.20;;;3.70;;
2972;SDS011;1496;51.404;7.232;2023-02-28T17:41:39;6.97;;;3.60;;
2972;SDS011;1496;51.404;7.232;2023-02-28T17:44:06;4.33;;;3.73;;
2972;SDS011;1496;51.404;7.232;2023-02-28T17:46:33;4.80;;;3.10;;
2972;SDS011;1496;51.404;7.232;2023-02-28T17:48:58;4.07;;;3.10;;
2972;SDS011;1496;51.404;7.232;2023-02-28T17:51:24;4.23;;;3.10;;
2972;SDS011;1496;51.404;7.232;2023-02-28T17:53:50;4.90;;;3.60;;
2972;SDS011;1496;51.404;7.232;2023-02-28T17:56:21;7.83;;;3.40;;
2972;SDS011;1496;51.404;7.232;2023-02-28T17:58:48;8.00;;;3.67;;
2972;SDS011;1496;51.404;7.232;2023-02-28T18:01:14;4.67;;;3.53;;
2972;SDS011;1496;51.404;7.232;2023-02-28T18:03:40;5.10;;;3.70;;